createdAt,value
2018-12-20T00:01:55.561Z,21.13
2018-12-20T00:04:24.195Z,23.23
2018-12-20T00:06:52.818Z,20.50
2018-12-20T00:09:21.664Z,20.27
2018-12-20T00:11:51.287Z,24.53
2018-12-20T00:14:19.855Z,29.70
2018-12-20T00:16:53.678Z,26.30
2018-12-20T00:19:23.413Z,50.60
2018-12-20T00:21:53.088Z,26.97
2018-12-20T00:24:22.627Z,32.63
2018-12-20T00:26:52.195Z,17.97
2018-12-20T00:29:21.786Z,16.40
2018-12-20T00:31:51.378Z,14.83
2018-12-20T00:34:21.313Z,24.80
2018-12-20T00:36:51.109Z,34.00
2018-12-20T00:39:21.106Z,44.07
2018-12-20T00:41:51.097Z,47.67
2018-12-20T00:44:20.955Z,53.23
2018-12-20T00:46:50.305Z,27.03
2018-12-20T00:49:18.868Z,24.47
2018-12-20T00:51:47.389Z,89.63
2018-12-20T00:54:15.974Z,28.13
2018-12-20T00:56:44.561Z,15.50
2018-12-20T00:59:13.243Z,16.97
2018-12-20T01:01:41.838Z,16.03
2018-12-20T01:04:10.671Z,16.07
2018-12-20T01:06:39.498Z,15.97
2018-12-20T01:09:08.897Z,16.10
2018-12-20T01:11:37.520Z,19.57
2018-12-20T01:14:06.605Z,17.63
2018-12-20T01:16:35.307Z,18.77
2018-12-20T01:19:03.899Z,19.50
2018-12-20T01:21:32.647Z,14.27
2018-12-20T01:24:01.684Z,16.57
2018-12-20T01:26:30.305Z,17.47
2018-12-20T01:28:58.897Z,17.80
2018-12-20T01:31:27.762Z,14.77
2018-12-20T01:33:56.394Z,17.37
2018-12-20T01:36:24.949Z,17.13
2018-12-20T01:38:53.570Z,16.70
2018-12-20T01:41:22.179Z,17.83
2018-12-20T01:43:50.828Z,16.87
2018-12-20T01:46:19.420Z,18.50
2018-12-20T01:48:48.223Z,18.03
2018-12-20T01:51:16.927Z,17.87
2018-12-20T01:53:45.550Z,19.33
2018-12-20T01:56:14.197Z,17.63
2018-12-20T01:58:43.007Z,19.83
2018-12-20T02:01:11.626Z,20.37
2018-12-20T02:03:40.169Z,18.97
2018-12-20T02:06:08.725Z,22.67
2018-12-20T02:08:37.274Z,20.93
2018-12-20T02:11:05.906Z,19.07
2018-12-20T02:13:34.549Z,20.50
2018-12-20T02:16:03.071Z,21.00
2018-12-20T02:18:31.633Z,19.70
2018-12-20T02:21:00.314Z,22.53
2018-12-20T02:23:28.918Z,22.50
2018-12-20T02:25:57.450Z,22.90
2018-12-20T02:28:25.992Z,21.73
2018-12-20T02:30:54.774Z,21.33
2018-12-20T02:33:23.368Z,21.47
2018-12-20T02:35:52.026Z,21.13
2018-12-20T02:38:20.714Z,22.83
2018-12-20T02:40:49.337Z,21.17
2018-12-20T02:43:17.894Z,23.20
2018-12-20T02:45:46.572Z,18.67
2018-12-20T02:48:15.388Z,20.97
2018-12-20T02:50:44.137Z,19.33
2018-12-20T02:53:12.954Z,20.37
2018-12-20T02:55:41.761Z,23.87
2018-12-20T02:58:10.522Z,21.07
2018-12-20T03:00:39.121Z,22.17
2018-12-20T03:03:07.645Z,20.53
2018-12-20T03:05:36.243Z,18.67
2018-12-20T03:08:04.845Z,19.93
2018-12-20T03:10:33.929Z,18.93
2018-12-20T03:13:02.694Z,23.40
2018-12-20T03:15:31.363Z,21.83
2018-12-20T03:18:00.105Z,19.50
2018-12-20T03:20:29.315Z,22.20
2018-12-20T03:22:58.065Z,19.63
2018-12-20T03:25:26.775Z,23.97
2018-12-20T03:27:55.510Z,21.20
2018-12-20T03:30:24.130Z,21.53
2018-12-20T03:32:52.736Z,19.87
2018-12-20T03:35:21.376Z,32.83
2018-12-20T03:37:49.940Z,28.57
2018-12-20T03:40:18.535Z,20.53
2018-12-20T03:42:47.360Z,21.17
2018-12-20T03:45:15.921Z,19.80
2018-12-20T03:47:44.532Z,20.13
2018-12-20T03:50:13.285Z,23.90
2018-12-20T03:52:41.971Z,20.17
2018-12-20T03:55:10.598Z,22.63
2018-12-20T03:57:39.324Z,21.73
2018-12-20T04:00:08.427Z,16.67
2018-12-20T04:02:37.198Z,24.57
2018-12-20T04:05:06.280Z,16.17
2018-12-20T04:07:34.969Z,15.43
2018-12-20T04:10:03.786Z,17.63
2018-12-20T04:12:32.793Z,16.50
2018-12-20T04:15:01.450Z,16.63
2018-12-20T04:17:30.224Z,25.93
2018-12-20T04:19:58.851Z,15.37
2018-12-20T04:22:27.399Z,17.80
2018-12-20T04:24:55.967Z,14.73
2018-12-20T04:27:24.518Z,14.53
2018-12-20T04:29:53.050Z,15.20
2018-12-20T04:32:21.581Z,14.37
2018-12-20T04:34:50.132Z,16.43
2018-12-20T04:37:19.026Z,15.83
2018-12-20T04:39:47.763Z,16.77
2018-12-20T04:42:16.318Z,15.50
2018-12-20T04:44:45.149Z,19.80
2018-12-20T04:47:13.794Z,19.97
2018-12-20T04:49:42.336Z,19.60
2018-12-20T04:52:11.168Z,18.33
2018-12-20T04:54:39.836Z,19.93
2018-12-20T04:57:08.357Z,19.90
2018-12-20T04:59:36.988Z,20.63
2018-12-20T05:02:05.821Z,19.67
2018-12-20T05:04:34.446Z,20.80
2018-12-20T05:07:03.047Z,19.23
2018-12-20T05:09:31.898Z,19.07
2018-12-20T05:12:00.815Z,19.67
2018-12-20T05:14:29.646Z,18.00
2018-12-20T05:16:58.301Z,23.13
2018-12-20T05:19:27.134Z,19.63
2018-12-20T05:21:55.699Z,21.17
2018-12-20T05:24:24.403Z,23.90
2018-12-20T05:26:53.149Z,18.30
2018-12-20T05:29:22.046Z,21.50
2018-12-20T05:31:50.584Z,22.80
2018-12-20T05:34:19.271Z,23.83
2018-12-20T05:36:47.893Z,24.73
2018-12-20T05:39:16.537Z,21.03
2018-12-20T05:41:45.295Z,19.37
2018-12-20T05:44:13.980Z,22.87
2018-12-20T05:46:42.636Z,20.97
2018-12-20T05:49:11.456Z,22.47
2018-12-20T05:51:40.085Z,22.13
2018-12-20T05:54:08.848Z,24.33
2018-12-20T05:56:37.509Z,21.77
2018-12-20T05:59:06.377Z,21.67
2018-12-20T06:01:35.046Z,22.13
2018-12-20T06:04:03.854Z,21.80
2018-12-20T06:06:32.395Z,21.50
2018-12-20T06:09:00.918Z,24.13
2018-12-20T06:11:29.578Z,20.60
2018-12-20T06:13:58.224Z,19.43
2018-12-20T06:16:26.779Z,23.93
2018-12-20T06:18:55.505Z,22.77
2018-12-20T06:21:24.255Z,21.80
2018-12-20T06:23:52.845Z,20.60
2018-12-20T06:26:21.386Z,20.97
2018-12-20T06:28:49.903Z,24.80
2018-12-20T06:31:18.442Z,22.40
2018-12-20T06:33:46.962Z,21.83
2018-12-20T06:36:15.513Z,25.33
2018-12-20T06:38:44.277Z,24.30
2018-12-20T06:41:12.839Z,22.90
2018-12-20T06:43:41.351Z,27.20
2018-12-20T06:46:09.910Z,22.87
2018-12-20T06:48:38.424Z,24.83
2018-12-20T06:51:06.977Z,23.17
2018-12-20T06:53:35.505Z,20.60
2018-12-20T06:56:04.057Z,20.67
2018-12-20T06:58:32.590Z,24.37
2018-12-20T07:01:01.859Z,22.20
2018-12-20T07:03:30.382Z,20.23
2018-12-20T07:05:58.912Z,22.17
2018-12-20T07:08:27.438Z,22.50
2018-12-20T07:10:55.941Z,23.23
2018-12-20T07:13:24.489Z,23.90
2018-12-20T07:15:53.031Z,18.73
2018-12-20T07:18:21.608Z,21.17
2018-12-20T07:20:50.266Z,18.40
2018-12-20T07:23:19.006Z,21.43
2018-12-20T07:25:47.566Z,20.30
2018-12-20T07:28:16.100Z,22.80
2018-12-20T07:30:44.970Z,21.00
2018-12-20T07:33:13.494Z,19.40
2018-12-20T07:35:42.035Z,19.20
2018-12-20T07:38:10.550Z,23.17
2018-12-20T07:40:39.083Z,18.53
2018-12-20T07:43:07.586Z,19.00
2018-12-20T07:45:36.102Z,21.70
2018-12-20T07:48:04.659Z,23.37
2018-12-20T07:50:33.202Z,18.83
2018-12-20T07:53:01.746Z,18.83
2018-12-20T07:55:30.829Z,19.47
2018-12-20T07:57:59.367Z,17.00
2018-12-20T08:00:29.934Z,18.83
2018-12-20T08:02:58.475Z,16.93
2018-12-20T08:05:27.014Z,18.90
2018-12-20T08:07:55.537Z,17.53
2018-12-20T08:10:24.094Z,18.57
2018-12-20T08:12:52.657Z,19.30
2018-12-20T08:15:21.242Z,21.70
2018-12-20T08:17:49.905Z,17.77
2018-12-20T08:20:19.415Z,15.33
2018-12-20T08:22:48.166Z,15.30
2018-12-20T08:25:16.706Z,17.63
2018-12-20T08:27:45.239Z,13.63
2018-12-20T08:30:14.078Z,14.77
2018-12-20T08:32:42.602Z,15.27
2018-12-20T08:35:11.497Z,13.43
2018-12-20T08:37:40.876Z,15.00
2018-12-20T08:40:13.438Z,14.57
2018-12-20T08:42:42.222Z,14.50
2018-12-20T08:45:10.759Z,15.43
2018-12-20T08:47:39.298Z,11.70
2018-12-20T08:50:07.976Z,12.77
2018-12-20T08:52:36.507Z,13.43
2018-12-20T08:55:05.566Z,13.10
2018-12-20T08:57:34.138Z,12.57
2018-12-20T09:00:02.700Z,12.37
2018-12-20T09:02:31.470Z,10.87
2018-12-20T09:05:00.014Z,13.27
2018-12-20T09:07:28.542Z,12.00
2018-12-20T09:09:57.094Z,14.70
2018-12-20T09:12:25.628Z,11.40
2018-12-20T09:14:54.176Z,11.27
2018-12-20T09:17:22.718Z,23.90
2018-12-20T09:19:51.941Z,12.10
2018-12-20T09:22:20.461Z,9.67
2018-12-20T09:24:49.009Z,11.60
2018-12-20T09:27:17.580Z,10.60
2018-12-20T09:29:46.138Z,12.93
2018-12-20T09:32:14.797Z,8.97
2018-12-20T09:34:43.358Z,8.93
2018-12-20T09:37:11.887Z,10.00
2018-12-20T09:39:40.457Z,26.20
2018-12-20T09:42:09.005Z,13.60
2018-12-20T09:44:37.550Z,18.23
2018-12-20T09:47:12.197Z,8.00
2018-12-20T09:49:40.939Z,13.43
2018-12-20T09:52:09.474Z,7.20
2018-12-20T09:54:38.067Z,18.27
2018-12-20T09:57:06.629Z,11.27
2018-12-20T09:59:35.229Z,9.87
2018-12-20T10:02:03.770Z,9.97
2018-12-20T10:04:32.344Z,9.43
2018-12-20T10:07:00.915Z,8.40
2018-12-20T10:09:31.443Z,7.60
2018-12-20T10:12:00.055Z,10.10
2018-12-20T10:14:28.567Z,10.03
2018-12-20T10:16:57.121Z,7.23
2018-12-20T10:19:25.675Z,6.97
2018-12-20T10:22:00.693Z,6.70
2018-12-20T10:24:29.233Z,9.33
2018-12-20T10:26:57.766Z,8.73
2018-12-20T10:29:26.286Z,6.63
2018-12-20T10:31:54.850Z,7.97
2018-12-20T10:34:23.458Z,6.27
2018-12-20T10:36:51.999Z,47.43
2018-12-20T10:39:20.540Z,6.77
2018-12-20T10:41:49.326Z,9.70
2018-12-20T10:44:17.860Z,6.77
2018-12-20T10:46:46.386Z,11.17
2018-12-20T10:49:15.193Z,4.97
2018-12-20T10:51:43.730Z,5.60
2018-12-20T10:54:12.253Z,4.90
2018-12-20T10:56:40.803Z,6.87
2018-12-20T10:59:09.322Z,6.37
2018-12-20T11:01:43.178Z,4.47
2018-12-20T11:04:20.128Z,4.50
2018-12-20T11:06:53.795Z,4.17
2018-12-20T11:09:27.566Z,5.47
2018-12-20T11:12:01.376Z,5.03
2018-12-20T11:14:29.923Z,6.63
2018-12-20T11:16:58.438Z,4.60
2018-12-20T11:19:27.074Z,4.37
2018-12-20T11:21:55.594Z,3.90
2018-12-20T11:24:24.131Z,4.53
2018-12-20T11:26:52.666Z,8.27
2018-12-20T11:29:21.331Z,5.10
2018-12-20T11:31:50.278Z,4.83
2018-12-20T11:34:18.806Z,7.10
2018-12-20T11:36:48.432Z,7.60
2018-12-20T11:39:17.174Z,3.87
2018-12-20T11:41:45.734Z,4.40
2018-12-20T11:44:14.270Z,4.67
2018-12-20T11:46:42.806Z,5.43
2018-12-20T11:49:11.728Z,7.03
2018-12-20T11:51:40.273Z,7.23
2018-12-20T11:54:08.820Z,10.50
2018-12-20T11:56:37.326Z,12.37
2018-12-20T11:59:05.874Z,11.07
2018-12-20T12:01:34.544Z,5.33
2018-12-20T12:04:03.091Z,6.00
2018-12-20T12:06:31.627Z,12.87
2018-12-20T12:09:00.173Z,11.33
2018-12-20T12:11:28.730Z,10.80
2018-12-20T12:13:57.374Z,5.03
2018-12-20T12:16:26.205Z,9.83
2018-12-20T12:18:54.783Z,8.37
2018-12-20T12:21:23.302Z,4.07
2018-12-20T12:23:51.858Z,5.70
2018-12-20T12:26:20.396Z,3.47
2018-12-20T12:28:48.958Z,5.20
2018-12-20T12:31:17.482Z,4.43
2018-12-20T12:33:46.026Z,3.33
2018-12-20T12:36:14.544Z,3.33
2018-12-20T12:38:43.073Z,4.43
2018-12-20T12:41:11.607Z,5.37
2018-12-20T12:43:40.134Z,5.53
2018-12-20T12:46:08.699Z,3.10
2018-12-20T12:48:37.421Z,4.60
2018-12-20T12:51:05.961Z,3.00
2018-12-20T12:53:34.841Z,3.97
2018-12-20T12:56:03.786Z,4.10
2018-12-20T12:58:32.447Z,3.77
2018-12-20T13:01:01.030Z,4.10
2018-12-20T13:03:29.793Z,2.80
2018-12-20T13:05:59.045Z,4.33
2018-12-20T13:08:27.773Z,2.63
2018-12-20T13:10:58.328Z,10.70
2018-12-20T13:13:26.853Z,3.40
2018-12-20T13:15:55.373Z,2.23
2018-12-20T13:18:23.926Z,3.63
2018-12-20T13:20:52.455Z,7.50
2018-12-20T13:23:21.011Z,4.70
2018-12-20T13:25:49.647Z,5.13
2018-12-20T13:28:18.174Z,3.83
2018-12-20T13:30:46.778Z,3.17
2018-12-20T13:33:15.482Z,4.80
2018-12-20T13:35:44.039Z,2.13
2018-12-20T13:38:12.608Z,2.37
2018-12-20T13:40:41.144Z,4.70
2018-12-20T13:43:09.743Z,4.77
2018-12-20T13:45:38.296Z,4.37
2018-12-20T13:48:07.235Z,2.63
2018-12-20T13:50:35.801Z,2.10
2018-12-20T13:53:04.322Z,3.07
2018-12-20T13:55:33.118Z,3.33
2018-12-20T13:58:01.668Z,4.43
2018-12-20T14:00:30.194Z,3.77
2018-12-20T14:02:58.736Z,5.70
2018-12-20T14:05:27.278Z,4.10
2018-12-20T14:07:58.903Z,2.57
2018-12-20T14:10:26.492Z,3.50
2018-12-20T14:12:55.124Z,5.03
2018-12-20T14:15:23.867Z,3.77
2018-12-20T14:17:52.453Z,4.33
2018-12-20T14:20:21.018Z,3.62
2018-12-20T14:22:49.569Z,4.53
2018-12-20T14:25:18.771Z,11.00
2018-12-20T14:27:47.371Z,2.53
2018-12-20T14:30:16.007Z,3.67
2018-12-20T14:32:44.651Z,4.80
2018-12-20T14:35:13.601Z,9.27
2018-12-20T14:37:42.168Z,4.37
2018-12-20T14:40:10.903Z,4.40
2018-12-20T14:42:39.630Z,3.87
2018-12-20T14:45:08.694Z,4.43
2018-12-20T14:47:37.214Z,7.60
2018-12-20T14:50:07.411Z,2.47
2018-12-20T14:52:36.019Z,5.20
2018-12-20T14:55:05.879Z,5.30
2018-12-20T14:57:34.442Z,8.93
2018-12-20T15:00:02.986Z,6.47
2018-12-20T15:02:31.526Z,2.97
2018-12-20T15:05:00.083Z,4.27
2018-12-20T15:07:28.691Z,5.17
2018-12-20T15:09:57.299Z,6.10
2018-12-20T15:12:26.842Z,3.77
2018-12-20T15:14:55.379Z,4.43
2018-12-20T15:17:23.955Z,10.97
2018-12-20T15:19:52.783Z,20.80
2018-12-20T15:22:21.486Z,8.23
2018-12-20T15:24:50.179Z,7.27
2018-12-20T15:27:18.688Z,31.47
2018-12-20T15:29:47.218Z,12.73
2018-12-20T15:32:15.887Z,10.33
2018-12-20T15:34:44.439Z,12.43
2018-12-20T15:37:13.066Z,17.43
2018-12-20T15:39:41.705Z,14.70
2018-12-20T15:42:10.344Z,12.33
2018-12-20T15:44:40.383Z,9.67
2018-12-20T15:47:09.147Z,10.03
2018-12-20T15:49:42.008Z,11.60
2018-12-20T15:52:08.583Z,8.97
2018-12-20T15:54:37.174Z,6.37
2018-12-20T15:57:05.870Z,9.27
2018-12-20T15:59:34.514Z,3.47
2018-12-20T16:02:03.336Z,4.07
2018-12-20T16:04:31.914Z,8.40
2018-12-20T16:07:00.794Z,7.13
2018-12-20T16:09:29.357Z,4.03
2018-12-20T16:11:57.906Z,4.60
2018-12-20T16:14:26.939Z,8.87
2018-12-20T16:16:55.485Z,10.87
2018-12-20T16:19:24.058Z,3.67
2018-12-20T16:21:52.690Z,6.17
2018-12-20T16:24:21.341Z,6.83
2018-12-20T16:26:49.902Z,4.67
2018-12-20T16:29:18.486Z,2.77
2018-12-20T16:31:47.048Z,11.47
2018-12-20T16:34:15.891Z,3.23
2018-12-20T16:36:44.439Z,4.07
2018-12-20T16:39:12.979Z,5.67
2018-12-20T16:41:42.255Z,4.37
2018-12-20T16:44:11.988Z,7.90
2018-12-20T16:46:41.430Z,2.37
2018-12-20T16:49:13.789Z,4.77
2018-12-20T16:51:42.060Z,5.80
2018-12-20T16:54:11.158Z,4.77
2018-12-20T16:56:40.404Z,6.10
2018-12-20T16:59:08.913Z,2.83
2018-12-20T17:01:37.986Z,8.13
2018-12-20T17:04:07.161Z,42.57
2018-12-20T17:06:36.156Z,6.60
2018-12-20T17:09:08.420Z,5.43
2018-12-20T17:11:37.586Z,11.83
2018-12-20T17:14:06.820Z,5.13
2018-12-20T17:16:36.094Z,3.93
2018-12-20T17:19:04.733Z,6.80
2018-12-20T17:21:33.999Z,4.33
2018-12-20T17:24:03.107Z,4.00
2018-12-20T17:26:32.156Z,5.40
2018-12-20T17:29:01.220Z,4.53
2018-12-20T17:31:30.352Z,5.93
2018-12-20T17:34:01.695Z,12.63
2018-12-20T17:36:30.798Z,3.20
2018-12-20T17:39:00.028Z,8.30
2018-12-20T17:41:29.291Z,4.63
2018-12-20T17:43:58.528Z,6.63
2018-12-20T17:46:27.812Z,2.70
2018-12-20T17:48:56.973Z,4.43
2018-12-20T17:51:26.132Z,6.07
2018-12-20T17:53:55.429Z,5.23
2018-12-20T17:56:24.760Z,4.23
2018-12-20T17:58:53.873Z,5.10
2018-12-20T18:01:23.020Z,2.30
2018-12-20T18:03:52.254Z,8.23
2018-12-20T18:06:21.397Z,8.10
2018-12-20T18:08:50.186Z,3.00
2018-12-20T18:11:18.986Z,4.50
2018-12-20T18:13:47.550Z,5.60
2018-12-20T18:16:16.535Z,7.37
2018-12-20T18:18:45.070Z,4.90
2018-12-20T18:21:13.626Z,6.60
2018-12-20T18:23:42.150Z,3.80
2018-12-20T18:26:10.711Z,4.10
2018-12-20T18:28:39.259Z,5.13
2018-12-20T18:31:07.841Z,3.50
2018-12-20T18:33:36.370Z,5.83
2018-12-20T18:36:05.067Z,3.13
2018-12-20T18:38:33.599Z,14.87
2018-12-20T18:41:02.134Z,5.13
2018-12-20T18:43:30.742Z,3.27
2018-12-20T18:45:59.283Z,2.70
2018-12-20T18:48:27.839Z,4.83
2018-12-20T18:50:56.433Z,4.70
2018-12-20T18:53:25.026Z,2.70
2018-12-20T18:55:53.603Z,3.47
2018-12-20T18:58:22.189Z,4.07
2018-12-20T19:00:50.840Z,5.43
2018-12-20T19:03:19.455Z,5.20
2018-12-20T19:05:48.079Z,3.93
2018-12-20T19:08:16.604Z,5.70
2018-12-20T19:10:45.359Z,4.57
2018-12-20T19:13:13.899Z,5.97
2018-12-20T19:15:42.480Z,11.20
2018-12-20T19:18:11.025Z,6.10
2018-12-20T19:20:39.825Z,5.37
2018-12-20T19:23:08.562Z,3.93
2018-12-20T19:25:37.157Z,4.40
2018-12-20T19:28:05.680Z,5.27
2018-12-20T19:30:34.225Z,6.07
2018-12-20T19:33:02.791Z,6.23
2018-12-20T19:35:31.623Z,3.90
2018-12-20T19:38:00.306Z,20.90
2018-12-20T19:40:29.068Z,8.20
2018-12-20T19:42:57.701Z,8.87
2018-12-20T19:45:26.279Z,7.00
2018-12-20T19:47:54.862Z,7.03
2018-12-20T19:50:23.477Z,3.70
2018-12-20T19:52:52.013Z,4.07
2018-12-20T19:55:20.759Z,4.63
2018-12-20T19:57:49.322Z,4.93
2018-12-20T20:00:19.246Z,7.43
2018-12-20T20:02:47.816Z,7.17
2018-12-20T20:05:16.357Z,4.23
2018-12-20T20:07:44.951Z,4.33
2018-12-20T20:10:13.575Z,5.93
2018-12-20T20:12:42.331Z,5.13
2018-12-20T20:15:16.474Z,8.87
2018-12-20T20:17:42.691Z,6.33
2018-12-20T20:20:14.134Z,5.70
2018-12-20T20:22:42.087Z,4.63
2018-12-20T20:25:10.638Z,9.00
2018-12-20T20:27:39.215Z,4.50
2018-12-20T20:30:10.879Z,3.67
2018-12-20T20:32:39.441Z,6.60
2018-12-20T20:35:08.386Z,4.73
2018-12-20T20:37:37.074Z,4.87
2018-12-20T20:40:07.432Z,4.37
2018-12-20T20:42:35.964Z,4.00
2018-12-20T20:45:05.370Z,4.17
2018-12-20T20:47:33.896Z,10.43
2018-12-20T20:50:02.547Z,5.03
2018-12-20T20:52:31.327Z,4.40
2018-12-20T20:54:59.850Z,5.13
2018-12-20T20:57:28.370Z,8.63
2018-12-20T20:59:56.881Z,7.40
2018-12-20T21:02:25.430Z,4.47
2018-12-20T21:04:53.941Z,9.47
2018-12-20T21:07:22.501Z,4.90
2018-12-20T21:09:51.086Z,5.10
2018-12-20T21:12:22.944Z,7.30
2018-12-20T21:14:52.491Z,3.60
2018-12-20T21:17:20.729Z,3.90
2018-12-20T21:19:50.269Z,3.77
2018-12-20T21:22:19.034Z,3.90
2018-12-20T21:24:47.567Z,4.07
2018-12-20T21:27:16.098Z,6.80
2018-12-20T21:29:44.621Z,4.90
2018-12-20T21:32:13.214Z,8.80
2018-12-20T21:34:41.767Z,5.00
2018-12-20T21:37:10.322Z,4.27
2018-12-20T21:39:38.855Z,7.53
2018-12-20T21:42:07.381Z,6.30
2018-12-20T21:44:35.920Z,15.07
2018-12-20T21:47:04.462Z,9.47
2018-12-20T21:49:33.002Z,7.87
2018-12-20T21:52:01.716Z,7.10
2018-12-20T21:54:30.278Z,20.00
2018-12-20T21:56:58.798Z,5.83
2018-12-20T21:59:27.341Z,37.40
2018-12-20T22:01:55.866Z,7.73
2018-12-20T22:04:24.425Z,6.10
2018-12-20T22:06:52.969Z,7.80
2018-12-20T22:09:21.478Z,7.40
2018-12-20T22:11:50.017Z,7.70
2018-12-20T22:14:18.582Z,6.60
2018-12-20T22:16:47.112Z,5.40
2018-12-20T22:19:15.662Z,12.57
2018-12-20T22:21:44.213Z,4.10
2018-12-20T22:24:12.722Z,5.33
2018-12-20T22:26:41.247Z,10.07
2018-12-20T22:29:09.811Z,4.33
2018-12-20T22:31:38.350Z,8.97
2018-12-20T22:34:06.887Z,5.10
2018-12-20T22:36:35.414Z,6.57
2018-12-20T22:39:04.937Z,7.00
2018-12-20T22:41:33.478Z,5.17
2018-12-20T22:44:02.014Z,10.63
2018-12-20T22:46:30.543Z,7.03
2018-12-20T22:48:59.096Z,6.43
2018-12-20T22:51:27.746Z,7.50
2018-12-20T22:53:56.276Z,5.20
2018-12-20T22:56:24.807Z,6.43
2018-12-20T22:58:53.380Z,5.93
2018-12-20T23:01:21.919Z,5.90
2018-12-20T23:03:50.745Z,4.20
2018-12-20T23:06:19.342Z,5.20
2018-12-20T23:08:47.887Z,5.97
2018-12-20T23:11:16.441Z,6.43
2018-12-20T23:13:44.971Z,7.77
2018-12-20T23:16:13.510Z,4.33
2018-12-20T23:18:42.038Z,3.97
2018-12-20T23:21:10.565Z,5.37
2018-12-20T23:23:39.090Z,3.53
2018-12-20T23:26:07.638Z,3.93
2018-12-20T23:28:36.158Z,6.20
2018-12-20T23:31:04.695Z,4.20
2018-12-20T23:33:33.254Z,8.13
2018-12-20T23:36:01.804Z,5.07
2018-12-20T23:38:30.326Z,4.20
2018-12-20T23:40:58.878Z,3.60
2018-12-20T23:43:27.399Z,7.13
2018-12-20T23:45:55.949Z,3.60
2018-12-20T23:48:24.454Z,5.00
2018-12-20T23:50:52.978Z,7.90
2018-12-20T23:53:21.493Z,3.10
2018-12-20T23:55:50.036Z,7.43
2018-12-20T23:58:18.559Z,3.40
